sensor_id;sensor_type;location;lat;lon;timestamp;P1;durP1;ratioP1;P2;durP2;ratioP2
28605;SDS011;46498;49.968;7.754;2024-03-29T00:03:05;3.78;;;0.70;;
28605;SDS011;46498;49.968;7.754;2024-03-29T00:08:06;4.87;;;0.90;;
28605;SDS011;46498;49.968;7.754;2024-03-29T00:13:07;5.03;;;1.58;;
28605;SDS011;46498;49.968;7.754;2024-03-29T00:18:08;2.67;;;0.80;;
28605;SDS011;46498;49.968;7.754;2024-03-29T00:23:08;4.95;;;0.85;;
28605;SDS011;46498;49.968;7.754;2024-03-29T00:28:09;5.10;;;1.25;;
28605;SDS011;46498;49.968;7.754;2024-03-29T00:33:10;6.75;;;1.60;;
28605;SDS011;46498;49.968;7.754;2024-03-29T00:38:14;5.75;;;1.30;;
28605;SDS011;46498;49.968;7.754;2024-03-29T00:43:15;4.87;;;1.87;;
28605;SDS011;46498;49.968;7.754;2024-03-29T00:48:17;7.35;;;1.90;;
28605;SDS011;46498;49.968;7.754;2024-03-29T00:53:20;5.90;;;1.75;;
28605;SDS011;46498;49.968;7.754;2024-03-29T00:58:21;7.30;;;2.12;;
28605;SDS011;46498;49.968;7.754;2024-03-29T01:03:22;8.18;;;2.75;;
28605;SDS011;46498;49.968;7.754;2024-03-29T01:08:22;6.45;;;2.35;;
28605;SDS011;46498;49.968;7.754;2024-03-29T01:13:24;9.32;;;1.90;;
28605;SDS011;46498;49.968;7.754;2024-03-29T01:18:24;6.07;;;1.80;;
28605;SDS011;46498;49.968;7.754;2024-03-29T01:23:25;6.10;;;1.87;;
28605;SDS011;46498;49.968;7.754;2024-03-29T01:28:26;7.00;;;2.17;;
28605;SDS011;46498;49.968;7.754;2024-03-29T01:33:27;4.60;;;1.50;;
28605;SDS011;46498;49.968;7.754;2024-03-29T01:38:32;4.60;;;1.20;;
28605;SDS011;46498;49.968;7.754;2024-03-29T01:43:33;3.72;;;0.95;;
28605;SDS011;46498;49.968;7.754;2024-03-29T01:48:34;8.02;;;2.03;;
28605;SDS011;46498;49.968;7.754;2024-03-29T01:53:35;2.75;;;1.40;;
28605;SDS011;46498;49.968;7.754;2024-03-29T01:58:36;5.87;;;1.50;;
28605;SDS011;46498;49.968;7.754;2024-03-29T02:08:41;4.80;;;1.10;;
28605;SDS011;46498;49.968;7.754;2024-03-29T02:13:42;3.95;;;1.10;;
28605;SDS011;46498;49.968;7.754;2024-03-29T02:18:43;7.25;;;1.60;;
28605;SDS011;46498;49.968;7.754;2024-03-29T02:23:44;4.62;;;1.05;;
28605;SDS011;46498;49.968;7.754;2024-03-29T02:28:48;6.90;;;1.27;;
28605;SDS011;46498;49.968;7.754;2024-03-29T02:33:48;5.45;;;1.33;;
28605;SDS011;46498;49.968;7.754;2024-03-29T02:38:49;4.10;;;1.25;;
28605;SDS011;46498;49.968;7.754;2024-03-29T02:43:50;7.65;;;1.52;;
28605;SDS011;46498;49.968;7.754;2024-03-29T02:48:51;6.12;;;1.30;;
28605;SDS011;46498;49.968;7.754;2024-03-29T02:53:52;6.30;;;1.30;;
28605;SDS011;46498;49.968;7.754;2024-03-29T02:58:54;4.70;;;1.30;;
28605;SDS011;46498;49.968;7.754;2024-03-29T03:03:55;5.57;;;1.30;;
28605;SDS011;46498;49.968;7.754;2024-03-29T03:08:56;5.95;;;1.33;;
28605;SDS011;46498;49.968;7.754;2024-03-29T03:14:16;7.20;;;1.55;;
28605;SDS011;46498;49.968;7.754;2024-03-29T03:19:16;5.35;;;1.55;;
28605;SDS011;46498;49.968;7.754;2024-03-29T03:24:17;3.78;;;1.10;;
28605;SDS011;46498;49.968;7.754;2024-03-29T03:29:18;4.93;;;1.23;;
28605;SDS011;46498;49.968;7.754;2024-03-29T03:34:19;6.80;;;1.40;;
28605;SDS011;46498;49.968;7.754;2024-03-29T03:39:20;7.12;;;2.17;;
28605;SDS011;46498;49.968;7.754;2024-03-29T03:44:21;4.05;;;1.35;;
28605;SDS011;46498;49.968;7.754;2024-03-29T03:49:24;6.37;;;1.20;;
28605;SDS011;46498;49.968;7.754;2024-03-29T03:54:25;4.90;;;1.70;;
28605;SDS011;46498;49.968;7.754;2024-03-29T03:59:26;3.20;;;1.48;;
28605;SDS011;46498;49.968;7.754;2024-03-29T04:04:26;6.95;;;1.60;;
28605;SDS011;46498;49.968;7.754;2024-03-29T04:09:27;5.35;;;1.70;;
28605;SDS011;46498;49.968;7.754;2024-03-29T04:14:29;3.97;;;1.12;;
28605;SDS011;46498;49.968;7.754;2024-03-29T04:19:32;7.93;;;1.67;;
28605;SDS011;46498;49.968;7.754;2024-03-29T04:24:33;3.58;;;1.40;;
28605;SDS011;46498;49.968;7.754;2024-03-29T04:29:34;3.60;;;1.40;;
28605;SDS011;46498;49.968;7.754;2024-03-29T04:34:35;6.05;;;1.90;;
28605;SDS011;46498;49.968;7.754;2024-03-29T04:39:36;4.68;;;1.45;;
28605;SDS011;46498;49.968;7.754;2024-03-29T04:44:36;9.35;;;2.70;;
28605;SDS011;46498;49.968;7.754;2024-03-29T04:49:37;6.07;;;2.15;;
28605;SDS011;46498;49.968;7.754;2024-03-29T04:54:39;7.00;;;1.92;;
28605;SDS011;46498;49.968;7.754;2024-03-29T04:59:42;4.97;;;1.60;;
28605;SDS011;46498;49.968;7.754;2024-03-29T05:04:43;5.22;;;1.65;;
28605;SDS011;46498;49.968;7.754;2024-03-29T05:09:44;6.87;;;1.98;;
28605;SDS011;46498;49.968;7.754;2024-03-29T05:14:45;4.93;;;1.45;;
28605;SDS011;46498;49.968;7.754;2024-03-29T05:19:46;6.25;;;1.77;;
28605;SDS011;46498;49.968;7.754;2024-03-29T05:24:47;5.22;;;1.15;;
28605;SDS011;46498;49.968;7.754;2024-03-29T05:29:48;3.42;;;1.45;;
28605;SDS011;46498;49.968;7.754;2024-03-29T05:34:48;6.90;;;1.70;;
28605;SDS011;46498;49.968;7.754;2024-03-29T05:39:49;6.75;;;1.15;;
28605;SDS011;46498;49.968;7.754;2024-03-29T05:44:52;3.42;;;1.05;;
28605;SDS011;46498;49.968;7.754;2024-03-29T05:49:54;2.83;;;1.20;;
28605;SDS011;46498;49.968;7.754;2024-03-29T05:54:55;2.35;;;0.90;;
28605;SDS011;46498;49.968;7.754;2024-03-29T05:59:56;3.58;;;1.05;;
28605;SDS011;46498;49.968;7.754;2024-03-29T06:04:57;5.28;;;1.17;;
28605;SDS011;46498;49.968;7.754;2024-03-29T06:09:58;5.95;;;1.08;;
28605;SDS011;46498;49.968;7.754;2024-03-29T06:14:59;3.97;;;1.27;;
28605;SDS011;46498;49.968;7.754;2024-03-29T06:20:19;4.65;;;1.40;;
28605;SDS011;46498;49.968;7.754;2024-03-29T06:25:21;5.93;;;1.87;;
28605;SDS011;46498;49.968;7.754;2024-03-29T06:30:22;4.35;;;1.50;;
28605;SDS011;46498;49.968;7.754;2024-03-29T06:35:23;4.60;;;1.00;;
28605;SDS011;46498;49.968;7.754;2024-03-29T06:40:23;3.58;;;1.15;;
28605;SDS011;46498;49.968;7.754;2024-03-29T06:45:25;4.90;;;1.20;;
28605;SDS011;46498;49.968;7.754;2024-03-29T06:50:25;3.42;;;1.30;;
28605;SDS011;46498;49.968;7.754;2024-03-29T06:55:26;2.80;;;1.08;;
28605;SDS011;46498;49.968;7.754;2024-03-29T07:00:27;7.25;;;1.50;;
28605;SDS011;46498;49.968;7.754;2024-03-29T07:05:28;3.33;;;1.25;;
28605;SDS011;46498;49.968;7.754;2024-03-29T07:10:29;2.95;;;0.95;;
28605;SDS011;46498;49.968;7.754;2024-03-29T07:15:31;2.08;;;0.98;;
28605;SDS011;46498;49.968;7.754;2024-03-29T07:20:32;3.55;;;1.20;;
28605;SDS011;46498;49.968;7.754;2024-03-29T07:25:33;2.62;;;1.00;;
28605;SDS011;46498;49.968;7.754;2024-03-29T07:30:35;4.07;;;1.48;;
28605;SDS011;46498;49.968;7.754;2024-03-29T07:35:42;3.60;;;1.40;;
28605;SDS011;46498;49.968;7.754;2024-03-29T07:40:43;3.90;;;1.30;;
28605;SDS011;46498;49.968;7.754;2024-03-29T07:45:44;7.37;;;1.37;;
28605;SDS011;46498;49.968;7.754;2024-03-29T07:50:45;4.45;;;1.48;;
28605;SDS011;46498;49.968;7.754;2024-03-29T07:55:49;3.62;;;1.10;;
28605;SDS011;46498;49.968;7.754;2024-03-29T08:00:51;5.53;;;1.20;;
28605;SDS011;46498;49.968;7.754;2024-03-29T08:05:56;4.73;;;0.97;;
28605;SDS011;46498;49.968;7.754;2024-03-29T08:11:04;3.80;;;0.88;;
28605;SDS011;46498;49.968;7.754;2024-03-29T08:16:05;3.83;;;1.12;;
28605;SDS011;46498;49.968;7.754;2024-03-29T08:21:07;2.55;;;0.95;;
28605;SDS011;46498;49.968;7.754;2024-03-29T08:26:12;2.65;;;1.17;;
28605;SDS011;46498;49.968;7.754;2024-03-29T08:31:13;4.20;;;1.37;;
28605;SDS011;46498;49.968;7.754;2024-03-29T08:36:14;1.92;;;1.00;;
28605;SDS011;46498;49.968;7.754;2024-03-29T08:41:15;1.87;;;1.12;;
28605;SDS011;46498;49.968;7.754;2024-03-29T08:46:16;3.40;;;1.77;;
28605;SDS011;46498;49.968;7.754;2024-03-29T08:51:17;3.42;;;1.30;;
28605;SDS011;46498;49.968;7.754;2024-03-29T08:56:18;2.65;;;1.30;;
28605;SDS011;46498;49.968;7.754;2024-03-29T09:01:19;6.57;;;1.55;;
28605;SDS011;46498;49.968;7.754;2024-03-29T09:06:20;4.57;;;1.60;;
28605;SDS011;46498;49.968;7.754;2024-03-29T09:11:21;2.33;;;1.08;;
28605;SDS011;46498;49.968;7.754;2024-03-29T09:16:22;3.15;;;1.12;;
28605;SDS011;46498;49.968;7.754;2024-03-29T09:21:22;4.40;;;1.37;;
28605;SDS011;46498;49.968;7.754;2024-03-29T09:26:23;3.10;;;1.52;;
28605;SDS011;46498;49.968;7.754;2024-03-29T09:31:27;4.03;;;1.10;;
28605;SDS011;46498;49.968;7.754;2024-03-29T09:36:28;5.18;;;1.90;;
28605;SDS011;46498;49.968;7.754;2024-03-29T09:41:28;6.22;;;1.87;;
28605;SDS011;46498;49.968;7.754;2024-03-29T09:46:31;4.03;;;1.87;;
28605;SDS011;46498;49.968;7.754;2024-03-29T09:51:34;6.47;;;1.90;;
28605;SDS011;46498;49.968;7.754;2024-03-29T09:56:36;8.05;;;2.05;;
28605;SDS011;46498;49.968;7.754;2024-03-29T10:01:38;5.43;;;2.10;;
28605;SDS011;46498;49.968;7.754;2024-03-29T10:06:39;5.07;;;1.80;;
28605;SDS011;46498;49.968;7.754;2024-03-29T10:11:43;5.75;;;2.70;;
28605;SDS011;46498;49.968;7.754;2024-03-29T10:16:45;6.68;;;2.92;;
28605;SDS011;46498;49.968;7.754;2024-03-29T10:21:46;8.35;;;2.12;;
28605;SDS011;46498;49.968;7.754;2024-03-29T10:26:47;7.20;;;2.20;;
28605;SDS011;46498;49.968;7.754;2024-03-29T10:31:48;3.87;;;1.98;;
28605;SDS011;46498;49.968;7.754;2024-03-29T10:36:52;3.70;;;2.00;;
28605;SDS011;46498;49.968;7.754;2024-03-29T10:41:53;6.32;;;2.10;;
28605;SDS011;46498;49.968;7.754;2024-03-29T10:46:56;3.90;;;2.20;;
28605;SDS011;46498;49.968;7.754;2024-03-29T10:51:59;5.87;;;2.50;;
28605;SDS011;46498;49.968;7.754;2024-03-29T10:57:02;6.60;;;2.40;;
28605;SDS011;46498;49.968;7.754;2024-03-29T11:02:19;7.18;;;2.35;;
28605;SDS011;46498;49.968;7.754;2024-03-29T11:07:35;3.75;;;2.10;;
28605;SDS011;46498;49.968;7.754;2024-03-29T11:12:41;6.62;;;2.50;;
28605;SDS011;46498;49.968;7.754;2024-03-29T11:17:51;6.30;;;2.40;;
28605;SDS011;46498;49.968;7.754;2024-03-29T11:22:54;6.18;;;2.80;;
28605;SDS011;46498;49.968;7.754;2024-03-29T11:28:03;4.05;;;1.90;;
28605;SDS011;46498;49.968;7.754;2024-03-29T11:33:08;4.32;;;2.25;;
28605;SDS011;46498;49.968;7.754;2024-03-29T11:38:09;6.60;;;2.60;;
28605;SDS011;46498;49.968;7.754;2024-03-29T11:43:10;5.07;;;3.10;;
28605;SDS011;46498;49.968;7.754;2024-03-29T11:48:11;5.20;;;2.62;;
28605;SDS011;46498;49.968;7.754;2024-03-29T11:53:16;3.37;;;2.25;;
28605;SDS011;46498;49.968;7.754;2024-03-29T11:58:17;4.93;;;2.25;;
28605;SDS011;46498;49.968;7.754;2024-03-29T12:03:18;4.45;;;2.55;;
28605;SDS011;46498;49.968;7.754;2024-03-29T12:08:21;16.80;;;9.00;;
28605;SDS011;46498;49.968;7.754;2024-03-29T12:13:23;6.33;;;3.00;;
28605;SDS011;46498;49.968;7.754;2024-03-29T12:18:24;5.90;;;2.67;;
28605;SDS011;46498;49.968;7.754;2024-03-29T12:23:28;7.95;;;3.22;;
28605;SDS011;46498;49.968;7.754;2024-03-29T12:28:33;5.00;;;2.50;;
28605;SDS011;46498;49.968;7.754;2024-03-29T12:33:35;6.20;;;3.00;;
28605;SDS011;46498;49.968;7.754;2024-03-29T12:38:35;7.10;;;2.75;;
28605;SDS011;46498;49.968;7.754;2024-03-29T12:43:38;5.03;;;2.70;;
28605;SDS011;46498;49.968;7.754;2024-03-29T12:48:38;4.70;;;2.58;;
28605;SDS011;46498;49.968;7.754;2024-03-29T12:53:39;1.98;;;1.65;;
28605;SDS011;46498;49.968;7.754;2024-03-29T12:58:40;1.62;;;1.40;;
28605;SDS011;46498;49.968;7.754;2024-03-29T13:03:41;3.53;;;1.80;;
28605;SDS011;46498;49.968;7.754;2024-03-29T13:08:44;1.42;;;1.20;;
28605;SDS011;46498;49.968;7.754;2024-03-29T13:13:45;3.12;;;1.00;;
28605;SDS011;46498;49.968;7.754;2024-03-29T13:18:46;3.78;;;0.95;;
28605;SDS011;46498;49.968;7.754;2024-03-29T13:23:46;1.65;;;0.50;;
28605;SDS011;46498;49.968;7.754;2024-03-29T13:28:47;2.08;;;0.40;;
28605;SDS011;46498;49.968;7.754;2024-03-29T13:33:48;1.65;;;0.30;;
28605;SDS011;46498;49.968;7.754;2024-03-29T13:38:49;0.77;;;0.30;;
28605;SDS011;46498;49.968;7.754;2024-03-29T13:44:01;0.45;;;0.20;;
28605;SDS011;46498;49.968;7.754;2024-03-29T13:49:06;1.35;;;0.20;;
28605;SDS011;46498;49.968;7.754;2024-03-29T13:54:06;1.33;;;0.50;;
28605;SDS011;46498;49.968;7.754;2024-03-29T13:59:07;2.67;;;1.27;;
28605;SDS011;46498;49.968;7.754;2024-03-29T14:04:08;4.70;;;0.60;;
28605;SDS011;46498;49.968;7.754;2024-03-29T14:09:09;1.33;;;0.50;;
28605;SDS011;46498;49.968;7.754;2024-03-29T14:14:10;0.52;;;0.40;;
28605;SDS011;46498;49.968;7.754;2024-03-29T14:19:17;0.98;;;0.40;;
28605;SDS011;46498;49.968;7.754;2024-03-29T14:24:17;0.60;;;0.40;;
28605;SDS011;46498;49.968;7.754;2024-03-29T14:29:18;2.47;;;0.40;;
28605;SDS011;46498;49.968;7.754;2024-03-29T14:34:22;2.45;;;0.55;;
28605;SDS011;46498;49.968;7.754;2024-03-29T14:39:23;1.37;;;0.50;;
28605;SDS011;46498;49.968;7.754;2024-03-29T14:44:24;1.77;;;0.80;;
28605;SDS011;46498;49.968;7.754;2024-03-29T14:49:25;2.80;;;0.90;;
28605;SDS011;46498;49.968;7.754;2024-03-29T14:54:27;2.85;;;0.50;;
28605;SDS011;46498;49.968;7.754;2024-03-29T14:59:29;4.53;;;0.50;;
28605;SDS011;46498;49.968;7.754;2024-03-29T15:04:31;3.80;;;0.50;;
28605;SDS011;46498;49.968;7.754;2024-03-29T15:09:32;1.30;;;0.70;;
28605;SDS011;46498;49.968;7.754;2024-03-29T15:14:34;2.90;;;0.50;;
28605;SDS011;46498;49.968;7.754;2024-03-29T15:19:35;2.85;;;0.80;;
28605;SDS011;46498;49.968;7.754;2024-03-29T15:24:41;2.90;;;0.70;;
28605;SDS011;46498;49.968;7.754;2024-03-29T15:29:42;1.95;;;0.73;;
28605;SDS011;46498;49.968;7.754;2024-03-29T15:34:43;1.58;;;0.77;;
28605;SDS011;46498;49.968;7.754;2024-03-29T15:39:44;2.45;;;1.10;;
28605;SDS011;46498;49.968;7.754;2024-03-29T15:44:45;2.62;;;0.90;;
28605;SDS011;46498;49.968;7.754;2024-03-29T15:49:46;1.67;;;0.98;;
28605;SDS011;46498;49.968;7.754;2024-03-29T15:54:47;3.17;;;1.48;;
28605;SDS011;46498;49.968;7.754;2024-03-29T15:59:48;3.35;;;2.00;;
28605;SDS011;46498;49.968;7.754;2024-03-29T16:04:49;4.70;;;1.73;;
28605;SDS011;46498;49.968;7.754;2024-03-29T16:09:53;1.87;;;0.98;;
28605;SDS011;46498;49.968;7.754;2024-03-29T16:14:54;3.00;;;0.90;;
28605;SDS011;46498;49.968;7.754;2024-03-29T16:19:55;3.20;;;0.62;;
28605;SDS011;46498;49.968;7.754;2024-03-29T16:24:55;2.60;;;0.60;;
28605;SDS011;46498;49.968;7.754;2024-03-29T16:29:56;1.35;;;0.50;;
28605;SDS011;46498;49.968;7.754;2024-03-29T16:34:57;3.05;;;0.80;;
28605;SDS011;46498;49.968;7.754;2024-03-29T16:39:58;0.77;;;0.57;;
28605;SDS011;46498;49.968;7.754;2024-03-29T16:44:59;0.93;;;0.40;;
28605;SDS011;46498;49.968;7.754;2024-03-29T16:50:00;1.00;;;0.52;;
28605;SDS011;46498;49.968;7.754;2024-03-29T16:55:01;1.83;;;0.90;;
28605;SDS011;46498;49.968;7.754;2024-03-29T17:00:03;5.30;;;2.72;;
28605;SDS011;46498;49.968;7.754;2024-03-29T17:05:08;1.75;;;0.70;;
28605;SDS011;46498;49.968;7.754;2024-03-29T17:10:09;36.80;;;21.55;;
28605;SDS011;46498;49.968;7.754;2024-03-29T17:15:10;8.43;;;2.65;;
28605;SDS011;46498;49.968;7.754;2024-03-29T17:20:11;4.07;;;2.20;;
28605;SDS011;46498;49.968;7.754;2024-03-29T17:25:12;4.15;;;1.50;;
28605;SDS011;46498;49.968;7.754;2024-03-29T17:30:13;3.00;;;0.98;;
28605;SDS011;46498;49.968;7.754;2024-03-29T17:35:14;1.33;;;0.77;;
28605;SDS011;46498;49.968;7.754;2024-03-29T17:40:15;2.35;;;0.75;;
28605;SDS011;46498;49.968;7.754;2024-03-29T17:45:16;1.58;;;0.85;;
28605;SDS011;46498;49.968;7.754;2024-03-29T17:50:17;4.18;;;2.37;;
28605;SDS011;46498;49.968;7.754;2024-03-29T17:55:18;2.83;;;1.27;;
28605;SDS011;46498;49.968;7.754;2024-03-29T18:00:19;2.30;;;0.70;;
28605;SDS011;46498;49.968;7.754;2024-03-29T18:05:20;2.92;;;1.80;;
28605;SDS011;46498;49.968;7.754;2024-03-29T18:10:22;1.75;;;0.98;;
28605;SDS011;46498;49.968;7.754;2024-03-29T18:15:23;4.37;;;2.22;;
28605;SDS011;46498;49.968;7.754;2024-03-29T18:20:23;2.53;;;1.50;;
28605;SDS011;46498;49.968;7.754;2024-03-29T18:25:24;2.40;;;1.08;;
28605;SDS011;46498;49.968;7.754;2024-03-29T18:30:25;2.90;;;1.42;;
28605;SDS011;46498;49.968;7.754;2024-03-29T18:35:27;2.97;;;1.27;;
28605;SDS011;46498;49.968;7.754;2024-03-29T18:40:28;1.77;;;0.80;;
28605;SDS011;46498;49.968;7.754;2024-03-29T18:45:28;1.62;;;0.60;;
28605;SDS011;46498;49.968;7.754;2024-03-29T18:50:29;2.47;;;1.35;;
28605;SDS011;46498;49.968;7.754;2024-03-29T18:55:30;2.08;;;0.50;;
28605;SDS011;46498;49.968;7.754;2024-03-29T19:00:31;2.72;;;1.33;;
28605;SDS011;46498;49.968;7.754;2024-03-29T19:05:32;3.90;;;1.70;;
28605;SDS011;46498;49.968;7.754;2024-03-29T19:10:33;3.12;;;1.50;;
28605;SDS011;46498;49.968;7.754;2024-03-29T19:15:34;3.53;;;1.20;;
28605;SDS011;46498;49.968;7.754;2024-03-29T19:20:36;3.77;;;2.50;;
28605;SDS011;46498;49.968;7.754;2024-03-29T19:25:37;3.97;;;3.40;;
28605;SDS011;46498;49.968;7.754;2024-03-29T19:30:38;6.50;;;4.15;;
28605;SDS011;46498;49.968;7.754;2024-03-29T19:35:38;6.20;;;4.60;;
28605;SDS011;46498;49.968;7.754;2024-03-29T19:40:39;9.95;;;6.50;;
28605;SDS011;46498;49.968;7.754;2024-03-29T19:45:40;10.98;;;8.10;;
28605;SDS011;46498;49.968;7.754;2024-03-29T19:50:41;15.73;;;10.93;;
28605;SDS011;46498;49.968;7.754;2024-03-29T19:55:44;15.82;;;11.48;;
28605;SDS011;46498;49.968;7.754;2024-03-29T20:00:48;18.35;;;10.65;;
28605;SDS011;46498;49.968;7.754;2024-03-29T20:05:51;19.75;;;13.82;;
28605;SDS011;46498;49.968;7.754;2024-03-29T20:10:52;26.60;;;17.73;;
28605;SDS011;46498;49.968;7.754;2024-03-29T20:15:53;18.52;;;13.93;;
28605;SDS011;46498;49.968;7.754;2024-03-29T20:20:53;16.27;;;10.90;;
28605;SDS011;46498;49.968;7.754;2024-03-29T20:25:54;28.23;;;13.43;;
28605;SDS011;46498;49.968;7.754;2024-03-29T20:30:59;25.92;;;15.15;;
28605;SDS011;46498;49.968;7.754;2024-03-29T20:36:04;30.90;;;17.52;;
28605;SDS011;46498;49.968;7.754;2024-03-29T20:41:06;49.58;;;22.27;;
28605;SDS011;46498;49.968;7.754;2024-03-29T20:46:07;76.55;;;24.50;;
28605;SDS011;46498;49.968;7.754;2024-03-29T20:51:08;40.58;;;22.42;;
28605;SDS011;46498;49.968;7.754;2024-03-29T20:56:08;39.05;;;23.15;;
28605;SDS011;46498;49.968;7.754;2024-03-29T21:01:10;207.12;;;30.27;;
28605;SDS011;46498;49.968;7.754;2024-03-29T21:06:11;569.33;;;44.97;;
28605;SDS011;46498;49.968;7.754;2024-03-29T21:11:12;500.23;;;39.92;;
28605;SDS011;46498;49.968;7.754;2024-03-29T21:16:13;65.70;;;27.58;;
28605;SDS011;46498;49.968;7.754;2024-03-29T21:21:14;44.28;;;24.67;;
28605;SDS011;46498;49.968;7.754;2024-03-29T21:26:15;38.13;;;20.67;;
28605;SDS011;46498;49.968;7.754;2024-03-29T21:31:15;36.88;;;19.62;;
28605;SDS011;46498;49.968;7.754;2024-03-29T21:36:17;47.28;;;24.37;;
28605;SDS011;46498;49.968;7.754;2024-03-29T21:41:18;52.47;;;27.40;;
28605;SDS011;46498;49.968;7.754;2024-03-29T21:46:19;83.75;;;38.13;;
28605;SDS011;46498;49.968;7.754;2024-03-29T21:51:20;107.18;;;29.80;;
28605;SDS011;46498;49.968;7.754;2024-03-29T21:56:21;89.32;;;44.20;;
28605;SDS011;46498;49.968;7.754;2024-03-29T22:01:21;40.20;;;20.88;;
28605;SDS011;46498;49.968;7.754;2024-03-29T22:06:25;43.75;;;18.45;;
28605;SDS011;46498;49.968;7.754;2024-03-29T22:11:26;38.95;;;20.23;;
28605;SDS011;46498;49.968;7.754;2024-03-29T22:16:26;30.00;;;15.20;;
28605;SDS011;46498;49.968;7.754;2024-03-29T22:21:27;27.15;;;14.32;;
28605;SDS011;46498;49.968;7.754;2024-03-29T22:26:30;38.67;;;21.05;;
28605;SDS011;46498;49.968;7.754;2024-03-29T22:31:35;35.42;;;17.92;;
28605;SDS011;46498;49.968;7.754;2024-03-29T22:36:37;160.37;;;26.15;;
28605;SDS011;46498;49.968;7.754;2024-03-29T22:41:38;82.40;;;23.95;;
28605;SDS011;46498;49.968;7.754;2024-03-29T22:46:39;48.10;;;22.92;;
28605;SDS011;46498;49.968;7.754;2024-03-29T22:51:39;49.35;;;20.50;;
28605;SDS011;46498;49.968;7.754;2024-03-29T22:56:42;67.37;;;21.43;;
28605;SDS011;46498;49.968;7.754;2024-03-29T23:01:44;103.80;;;21.23;;
28605;SDS011;46498;49.968;7.754;2024-03-29T23:06:45;50.10;;;20.50;;
28605;SDS011;46498;49.968;7.754;2024-03-29T23:11:46;36.70;;;17.40;;
28605;SDS011;46498;49.968;7.754;2024-03-29T23:16:47;284.80;;;25.27;;
28605;SDS011;46498;49.968;7.754;2024-03-29T23:21:48;56.08;;;22.33;;
28605;SDS011;46498;49.968;7.754;2024-03-29T23:26:48;375.60;;;38.17;;
28605;SDS011;46498;49.968;7.754;2024-03-29T23:31:49;447.05;;;33.25;;
28605;SDS011;46498;49.968;7.754;2024-03-29T23:36:50;44.72;;;18.70;;
28605;SDS011;46498;49.968;7.754;2024-03-29T23:41:51;53.85;;;20.12;;
28605;SDS011;46498;49.968;7.754;2024-03-29T23:46:52;270.88;;;30.75;;
28605;SDS011;46498;49.968;7.754;2024-03-29T23:51:53;51.33;;;20.52;;
28605;SDS011;46498;49.968;7.754;2024-03-29T23:56:54;35.80;;;17.95;;
